Time;durP1;ratioP1;P1;durP2;ratioP2;P2;SDS_P1;SDS_P2;PMS_P1;PMS_P2;Temp;Humidity;BMP_temperature;BMP_pressure;BME280_temperature;BME280_humidity;BME280_pressure;Samples;Min_cycle;Max_cycle;Signal;HPM_P1;HPM_P2
2022/03/04 00:00:40;;;;;;;;;65.00;50.75;;;;;11.31;71.80;100760.81;5095548;27;45770;-72
2022/03/04 00:03:05;;;;;;;;;60.00;45.25;;;;;11.29;71.83;100760.91;5097547;27;45966;-71
2022/03/04 00:05:31;;;;;;;;;65.00;49.50;;;;;11.30;72.46;100773.16;5096973;27;47133;-73
2022/03/04 00:07:56;;;;;;;;;60.50;47.00;;;;;11.30;72.26;100774.91;5096944;27;45318;-72
2022/03/04 00:10:22;;;;;;;;;59.50;45.75;;;;;11.28;72.21;100774.09;5095620;27;45368;-71
2022/03/04 00:12:47;;;;;;;;;64.50;50.00;;;;;11.28;72.22;100774.97;5097221;27;45535;-70
2022/03/04 00:15:12;;;;;;;;;58.00;46.50;;;;;11.29;72.63;100781.09;5096625;27;45805;-71
2022/03/04 00:17:38;;;;;;;;;59.00;48.25;;;;;11.32;72.01;100768.66;5096968;27;45392;-71
2022/03/04 00:20:03;;;;;;;;;61.00;47.25;;;;;11.34;72.56;100774.72;5096762;27;45213;-69
2022/03/04 00:22:29;;;;;;;;;61.75;49.25;;;;;11.36;72.46;100772.03;5097241;27;46116;-70
2022/03/04 00:24:54;;;;;;;;;58.00;46.50;;;;;11.35;72.25;100771.19;5096585;27;45542;-69
2022/03/04 00:27:20;;;;;;;;;65.75;51.25;;;;;11.35;71.97;100771.19;5096378;27;45198;-70
2022/03/04 00:29:45;;;;;;;;;65.25;50.25;;;;;11.35;72.59;100770.31;5096767;27;45270;-70
2022/03/04 00:32:10;;;;;;;;;70.25;51.75;;;;;11.35;72.34;100770.31;5095245;27;45588;-70
2022/03/04 00:34:36;;;;;;;;;63.75;50.25;;;;;11.34;72.50;100779.13;5096454;27;46156;-68
2022/03/04 00:37:01;;;;;;;;;64.25;48.75;;;;;11.34;72.46;100782.63;5095530;27;45242;-69
2022/03/04 00:39:27;;;;;;;;;62.25;48.75;;;;;11.35;72.36;100772.94;5096495;27;45455;-70
2022/03/04 00:41:52;;;;;;;;;67.00;51.25;;;;;11.38;72.62;100770.19;5096651;27;45567;-68
2022/03/04 00:44:18;;;;;;;;;65.50;48.75;;;;;11.38;72.61;100776.31;5096265;27;45485;-68
2022/03/04 00:46:43;;;;;;;;;65.75;50.50;;;;;11.39;72.24;100772.78;5096275;27;45389;-69
2022/03/04 00:49:09;;;;;;;;;65.25;50.50;;;;;11.39;72.36;100767.50;5095424;27;45746;-70
2022/03/04 00:51:34;;;;;;;;;71.75;55.50;;;;;11.38;72.49;100757.88;5096372;27;45414;-71
2022/03/04 00:53:59;;;;;;;;;74.00;53.75;;;;;11.36;72.29;100753.59;5096023;27;45412;-69
2022/03/04 00:56:25;;;;;;;;;69.75;52.75;;;;;11.34;72.12;100763.31;5096198;27;45338;-66
2022/03/04 00:58:50;;;;;;;;;74.00;55.50;;;;;11.30;73.02;100759.09;5094564;27;45469;-71
2022/03/04 01:01:16;;;;;;;;;63.75;49.75;;;;;11.22;72.34;100767.34;5096596;27;45377;-66
2022/03/04 01:03:41;;;;;;;;;66.25;52.00;;;;;11.10;72.28;100764.22;5096179;27;45482;-65
2022/03/04 01:06:08;;;;;;;;;68.50;52.25;;;;;10.99;72.95;100758.53;5094989;27;45347;-69
2022/03/04 01:08:33;;;;;;;;;67.25;51.25;;;;;10.87;73.00;100754.63;5094815;27;45362;-69
2022/03/04 01:10:59;;;;;;;;;69.75;53.75;;;;;10.83;73.25;100763.56;5096457;27;45519;-69
2022/03/04 01:13:25;;;;;;;;;61.50;48.25;;;;;10.75;73.45;100773.53;5094571;27;48136;-69
2022/03/04 01:15:50;;;;;;;;;68.25;52.25;;;;;10.64;73.88;100764.25;5095881;27;45499;-66
2022/03/04 01:18:17;;;;;;;;;69.50;55.25;;;;;10.58;74.04;100768.88;5095841;27;45345;-68
2022/03/04 01:20:45;;;;;;;;;66.25;51.50;;;;;10.47;74.32;100767.50;5096687;27;45355;-66
2022/03/04 01:23:11;;;;;;;;;67.00;50.25;;;;;10.42;74.88;100769.44;5095018;27;47410;-67
2022/03/04 01:25:36;;;;;;;;;69.75;53.50;;;;;10.38;74.98;100773.91;5095937;27;45432;-65
2022/03/04 01:28:02;;;;;;;;;63.50;49.75;;;;;10.31;75.01;100769.78;5095837;27;45421;-66
2022/03/04 01:30:27;;;;;;;;;64.25;49.75;;;;;10.28;75.71;100767.28;5095939;27;45403;-68
2022/03/04 01:32:52;;;;;;;;;70.50;53.75;;;;;10.22;75.79;100767.50;5095770;27;46162;-68
2022/03/04 01:35:18;;;;;;;;;72.25;56.00;;;;;10.23;75.40;100774.47;5095453;27;45262;-69
2022/03/04 01:37:44;;;;;;;;;64.50;49.75;;;;;10.22;75.92;100775.38;5095786;27;45250;-67
2022/03/04 01:40:10;;;;;;;;;70.00;53.25;;;;;10.23;76.04;100769.22;5096232;27;45250;-68
2022/03/04 01:42:37;;;;;;;;;67.50;51.50;;;;;10.24;76.24;100770.94;5095190;27;46207;-68
2022/03/04 01:45:07;;;;;;;;;68.00;52.50;;;;;10.31;76.02;100780.31;5095534;27;45354;-68
2022/03/04 01:47:34;;;;;;;;;71.00;54.75;;;;;10.35;75.75;100767.91;5095500;27;45353;-66
2022/03/04 01:49:59;;;;;;;;;63.75;47.50;;;;;10.38;76.00;100766.03;5099190;27;45259;-68
2022/03/04 01:52:25;;;;;;;;;67.25;51.50;;;;;10.43;75.60;100763.28;5097638;27;47311;-67
2022/03/04 01:54:50;;;;;;;;;64.50;48.50;;;;;10.46;75.40;100763.16;5098980;27;45314;-68
2022/03/04 01:57:16;;;;;;;;;66.50;52.00;;;;;10.44;75.46;100762.34;5098776;27;45186;-65
2022/03/04 01:59:41;;;;;;;;;66.25;51.75;;;;;10.44;75.44;100762.34;5099608;27;45257;-67
2022/03/04 02:02:07;;;;;;;;;72.00;54.25;;;;;10.41;75.56;100758.97;5097326;27;48134;-69
2022/03/04 02:04:32;;;;;;;;;70.75;53.50;;;;;10.38;75.87;100757.28;5098676;27;45333;-69
2022/03/04 02:06:58;;;;;;;;;75.50;58.25;;;;;10.33;75.33;100753.97;5114857;27;45412;-69
2022/03/04 02:09:23;;;;;;;;;76.00;63.00;;;;;10.25;75.64;100748.97;5098954;27;45565;-67
2022/03/04 02:11:49;;;;;;;;;77.33;62.33;;;;;10.18;76.10;100745.72;5113830;27;46046;-69
2022/03/04 02:14:15;;;;;;;;;71.00;59.67;;;;;10.13;76.92;100750.28;5108750;27;45324;-68
2022/03/04 02:16:44;;;;;;;;;72.33;61.67;;;;;10.07;76.34;100750.47;5104495;27;45487;-66
2022/03/04 02:19:10;;;;;;;;;74.33;60.33;;;;;10.01;76.60;100750.69;5108481;27;45545;-65
2022/03/04 02:21:35;;;;;;;;;73.00;62.33;;;;;9.88;76.77;100738.00;5112402;27;45411;-69
2022/03/04 02:24:01;;;;;;;;;74.67;63.00;;;;;9.89;77.19;100744.97;5111839;27;45251;-71
2022/03/04 02:26:27;;;;;;;;;74.33;62.67;;;;;9.85;77.29;100738.09;5110210;27;45372;-69
2022/03/04 02:28:53;;;;;;;;;75.67;61.00;;;;;9.82;77.37;100737.38;5107068;27;45555;-70
2022/03/04 02:31:20;;;;;;;;;68.67;57.00;;;;;9.76;77.10;100741.06;5108692;27;45347;-70
2022/03/04 02:33:46;;;;;;;;;74.67;63.33;;;;;9.72;77.75;100737.69;5117176;27;44859;-70
2022/03/04 02:36:13;;;;;;;;;68.33;51.00;;;;;9.71;77.59;100737.72;5129697;27;45337;-71
2022/03/04 02:38:38;;;;;;;;;73.00;59.00;;;;;9.68;78.04;100737.81;5113428;27;45464;-70
2022/03/04 02:41:04;;;;;;;;;69.33;57.00;;;;;9.68;78.38;100746.59;5108118;27;45390;-67
2022/03/04 02:43:29;;;;;;;;;75.33;55.67;;;;;9.69;78.76;100740.41;5106568;27;45304;-67
2022/03/04 02:45:55;;;;;;;;;71.33;56.33;;;;;9.69;78.47;100743.03;5107881;27;45386;-71
2022/03/04 02:48:20;;;;;;;;;71.67;57.67;;;;;9.73;78.64;100743.78;5113681;27;44795;-71
2022/03/04 02:50:46;;;;;;;;;73.00;58.67;;;;;9.77;78.49;100743.63;5109615;27;47045;-70
2022/03/04 02:53:12;;;;;;;;;74.33;61.00;;;;;9.83;78.30;100742.56;5105795;27;45231;-68
2022/03/04 02:55:37;;;;;;;;;68.00;54.25;;;;;9.89;78.67;100752.84;5105988;27;45191;-70
2022/03/04 02:58:03;;;;;;;;;70.25;55.50;;;;;9.92;78.67;100741.38;5106513;27;44905;-68
2022/03/04 03:00:28;;;;;;;;;66.50;52.00;;;;;9.97;78.67;100742.09;5112425;27;45301;-65
2022/03/04 03:02:54;;;;;;;;;66.25;50.75;;;;;10.04;78.54;100746.22;5113773;27;45246;-67
2022/03/04 03:05:20;;;;;;;;;68.50;52.25;;;;;10.11;78.60;100748.63;5105334;27;45330;-68
2022/03/04 03:07:45;;;;;;;;;66.50;52.25;;;;;10.15;78.16;100753.72;5100448;27;45341;-68
2022/03/04 03:10:11;;;;;;;;;68.75;53.75;;;;;10.18;78.20;100752.75;5099919;27;46143;-71
2022/03/04 03:12:38;;;;;;;;;69.75;54.00;;;;;10.20;77.96;100753.53;5097549;27;45357;-70
2022/03/04 03:15:03;;;;;;;;;69.00;51.75;;;;;10.22;77.94;100746.47;5097702;27;45394;-68
2022/03/04 03:17:29;;;;;;;;;68.75;54.25;;;;;10.20;77.89;100751.78;5097776;27;45222;-69
2022/03/04 03:19:54;;;;;;;;;72.25;55.75;;;;;10.19;77.88;100747.44;5097307;27;46077;-69
2022/03/04 03:22:20;;;;;;;;;71.75;58.25;;;;;10.20;77.77;100745.66;5097602;27;45272;-70
2022/03/04 03:24:46;;;;;;;;;74.50;54.75;;;;;10.23;78.36;100749.06;5097877;27;45318;-67
2022/03/04 03:27:11;;;;;;;;;69.25;52.75;;;;;10.27;77.88;100744.53;5096257;27;45665;-65
2022/03/04 03:29:37;;;;;;;;;73.25;56.75;;;;;10.27;78.30;100755.03;5096950;27;45995;-65
2022/03/04 03:32:02;;;;;;;;;67.25;52.00;;;;;10.22;77.77;100754.34;5097214;27;45373;-68
2022/03/04 03:34:28;;;;;;;;;74.50;57.25;;;;;10.22;77.55;100751.72;5097507;27;45230;-68
2022/03/04 03:36:53;;;;;;;;;74.50;57.25;;;;;10.22;77.46;100757.84;5097393;27;45445;-66
2022/03/04 03:39:19;;;;;;;;;74.00;60.33;;;;;10.26;77.81;100755.13;5097502;27;46363;-68
2022/03/04 03:41:44;;;;;;;;;75.33;62.33;;;;;10.25;77.70;100750.78;5097682;27;45362;-69
2022/03/04 03:44:10;;;;;;;;;73.75;57.75;;;;;10.28;77.93;100750.66;5095854;27;45365;-69
2022/03/04 03:46:35;;;;;;;;;63.75;50.50;;;;;10.28;77.87;100751.50;5097455;27;45598;-67
2022/03/04 03:49:01;;;;;;;;;71.75;57.00;;;;;10.32;77.50;100757.53;5097041;27;46159;-64
2022/03/04 03:51:26;;;;;;;;;72.00;53.75;;;;;10.31;77.48;100756.66;5096969;27;45294;-66
2022/03/04 03:53:51;;;;;;;;;74.50;58.00;;;;;10.31;77.75;100753.19;5097200;27;45262;-67
2022/03/04 03:56:17;;;;;;;;;71.00;55.50;;;;;10.30;77.58;100760.19;5096118;27;45447;-70
2022/03/04 03:58:42;;;;;;;;;67.75;53.50;;;;;10.31;78.03;100759.28;5096370;27;46109;-69
2022/03/04 04:01:07;;;;;;;;;75.25;56.75;;;;;10.28;77.71;100753.28;5096751;27;45301;-67
2022/03/04 04:03:33;;;;;;;;;72.25;55.50;;;;;10.30;77.31;100754.94;5096997;27;45408;-71
2022/03/04 04:05:59;;;;;;;;;68.00;53.25;;;;;10.32;77.32;100754.88;5097198;27;45432;-70
2022/03/04 04:08:25;;;;;;;;;66.75;53.50;;;;;10.31;77.05;100759.28;5096689;27;45443;-70
2022/03/04 04:10:50;;;;;;;;;64.75;50.00;;;;;10.32;76.87;100757.53;5095819;27;45234;-68
2022/03/04 04:13:15;;;;;;;;;64.25;49.75;;;;;10.26;76.84;100766.47;5113499;27;45232;-70
2022/03/04 04:15:41;;;;;;;;;67.00;48.25;;;;;10.23;76.44;100775.34;5097695;27;46026;-68
2022/03/04 04:18:06;;;;;;;;;64.50;49.00;;;;;10.20;76.78;100774.56;5096591;27;46191;-68
2022/03/04 04:20:32;;;;;;;;;67.25;48.25;;;;;10.18;77.01;100777.28;5096637;27;45159;-69
2022/03/04 04:22:57;;;;;;;;;70.75;53.50;;;;;10.23;77.08;100779.72;5096815;27;45385;-69
2022/03/04 04:25:22;;;;;;;;;60.25;47.00;;;;;10.21;76.92;100773.66;5095707;27;45265;-68
2022/03/04 04:27:48;;;;;;;;;58.50;47.00;;;;;10.18;76.56;100769.38;5095466;27;47294;-69
2022/03/04 04:30:13;;;;;;;;;66.75;50.50;;;;;10.20;76.68;100779.84;5096321;27;45309;-68
2022/03/04 04:32:39;;;;;;;;;63.75;50.75;;;;;10.21;76.86;100776.28;5096561;27;45372;-70
2022/03/04 04:35:05;;;;;;;;;62.25;50.25;;;;;10.18;76.79;100781.66;5096619;27;45529;-71
2022/03/04 04:37:30;;;;;;;;;63.50;50.75;;;;;10.17;76.62;100779.94;5096516;27;47057;-70
2022/03/04 04:39:56;;;;;;;;;62.50;48.75;;;;;10.17;76.63;100780.81;5112293;27;45365;-71
2022/03/04 04:42:22;;;;;;;;;60.00;46.75;;;;;10.17;76.42;100775.56;5095359;27;45466;-70
2022/03/04 04:44:47;;;;;;;;;65.50;49.50;;;;;10.15;76.12;100782.66;5095239;27;45503;-73
2022/03/04 04:47:12;;;;;;;;;62.00;48.00;;;;;10.08;76.75;100781.16;5096283;27;45472;-69
2022/03/04 04:49:38;;;;;;;;;63.25;49.75;;;;;10.12;76.54;100788.00;5096291;27;45469;-66
2022/03/04 04:52:05;;;;;;;;;62.25;48.25;;;;;10.09;76.57;100783.69;5096213;27;45173;-71
2022/03/04 04:54:32;;;;;;;;;64.75;51.00;;;;;10.10;77.15;100795.09;5096411;27;45234;-67
2022/03/04 04:56:58;;;;;;;;;64.00;50.25;;;;;10.03;77.49;100786.53;5095754;27;45641;-67
2022/03/04 04:59:23;;;;;;;;;69.00;52.75;;;;;10.04;77.10;100793.53;5096524;27;45202;-67
2022/03/04 05:01:48;;;;;;;;;62.50;49.75;;;;;9.99;77.31;100786.69;5096351;27;45459;-66
2022/03/04 05:04:14;;;;;;;;;64.75;51.25;;;;;10.00;77.40;100793.66;5096328;27;45831;-67
2022/03/04 05:06:40;;;;;;;;;71.75;54.50;;;;;9.98;77.98;100784.97;5095851;27;46120;-68
2022/03/04 05:09:05;;;;;;;;;56.50;45.50;;;;;9.89;77.67;100778.28;5095794;27;45358;-66
2022/03/04 05:11:30;;;;;;;;;65.00;49.00;;;;;9.93;78.15;100786.00;5096047;27;45755;-67
2022/03/04 05:13:56;;;;;;;;;67.50;52.25;;;;;9.97;77.84;100789.38;5096060;27;45635;-68
2022/03/04 05:16:21;;;;;;;;;67.25;51.00;;;;;9.96;78.05;100790.28;5096346;27;46263;-68
2022/03/04 05:18:47;;;;;;;;;70.00;53.00;;;;;9.97;77.46;100794.66;5096327;27;45375;-69
2022/03/04 05:21:12;;;;;;;;;66.25;50.25;;;;;9.97;77.77;100794.66;5095821;27;45297;-69
2022/03/04 05:26:22;;;;;;;;;63.75;50.25;;;;;10.05;77.46;100794.38;5099394;27;45361;-68
2022/03/04 05:28:47;;;;;;;;;62.50;48.25;;;;;10.10;77.44;100808.22;5099455;27;45425;-65
2022/03/04 05:31:12;;;;;;;;;65.50;50.50;;;;;10.13;77.40;100802.00;5099387;27;45451;-66
2022/03/04 05:33:38;;;;;;;;;66.25;51.00;;;;;10.14;77.53;100806.34;5099419;27;45394;-66
2022/03/04 05:36:04;;;;;;;;;65.25;50.25;;;;;10.11;77.00;100804.69;5099165;27;45408;-66
2022/03/04 05:38:29;;;;;;;;;66.50;50.25;;;;;10.08;77.34;100804.81;5099343;27;45342;-70
2022/03/04 05:40:55;;;;;;;;;62.00;48.75;;;;;10.08;77.14;100797.75;5099878;27;45257;-69
2022/03/04 05:43:20;;;;;;;;;63.75;49.75;;;;;10.14;77.23;100812.47;5098487;27;45426;-70
2022/03/04 05:45:46;;;;;;;;;66.00;50.50;;;;;10.17;76.79;100804.47;5099417;27;45321;-70
2022/03/04 05:48:11;;;;;;;;;63.25;48.75;;;;;10.18;76.97;100805.31;5099115;27;45234;-71
2022/03/04 05:50:37;;;;;;;;;62.75;50.25;;;;;10.23;76.88;100809.53;5099210;27;45194;-70
2022/03/04 05:53:02;;;;;;;;;61.75;49.00;;;;;10.28;76.65;100806.72;5099503;27;45216;-72
2022/03/04 05:55:28;;;;;;;;;63.75;49.50;;;;;10.30;76.05;100804.88;5098876;27;46555;-69
2022/03/04 05:57:53;;;;;;;;;61.25;47.75;;;;;10.30;75.99;100802.25;5098762;27;45200;-66
2022/03/04 06:00:18;;;;;;;;;64.25;49.50;;;;;10.33;76.31;100804.78;5098829;27;45857;-69
2022/03/04 06:02:44;;;;;;;;;57.75;45.75;;;;;10.36;75.48;100812.56;5098999;27;45500;-70
2022/03/04 06:05:09;;;;;;;;;66.50;51.75;;;;;10.36;75.44;100817.81;5097670;27;45459;-72
2022/03/04 06:07:35;;;;;;;;;68.25;50.50;;;;;10.36;75.26;100812.56;5114610;27;45407;-69
2022/03/04 06:10:01;;;;;;;;;64.00;49.50;;;;;10.34;75.04;100806.50;5098690;27;45371;-70
2022/03/04 06:12:26;;;;;;;;;62.50;49.25;;;;;10.38;75.10;100815.16;5098815;27;45489;-66
2022/03/04 06:14:52;;;;;;;;;68.50;52.25;;;;;10.42;75.18;100824.66;5098300;27;46358;-69
2022/03/04 06:17:17;;;;;;;;;67.50;51.50;;;;;10.45;75.11;100826.31;5098271;27;45399;-70
2022/03/04 06:19:44;;;;;;;;;67.50;50.25;;;;;10.50;75.02;100832.28;5096959;27;45461;-70
2022/03/04 06:22:09;;;;;;;;;68.25;52.00;;;;;10.52;74.60;100838.34;5098397;27;45416;-65
2022/03/04 06:24:35;;;;;;;;;65.75;51.25;;;;;10.53;74.50;100837.41;5097949;27;46445;-71
2022/03/04 06:27:00;;;;;;;;;65.50;50.00;;;;;10.54;74.39;100831.25;5113831;27;45251;-70
2022/03/04 06:29:26;;;;;;;;;71.75;54.25;;;;;10.55;73.90;100840.84;5098549;27;45663;-71
2022/03/04 06:31:52;;;;;;;;;66.25;50.25;;;;;10.57;74.05;100846.91;5081449;27;45377;-70
2022/03/04 06:34:17;;;;;;;;;66.50;50.75;;;;;10.53;73.43;100834.78;5075375;27;46051;-70
2022/03/04 06:36:43;;;;;;;;;60.25;49.25;;;;;10.54;73.58;100841.78;5077470;27;45401;-70
2022/03/04 06:39:08;;;;;;;;;60.00;49.25;;;;;10.55;73.64;100835.59;5077659;27;45509;-70
2022/03/04 06:41:34;;;;;;;;;62.75;47.50;;;;;10.57;73.79;100832.91;5076294;27;45442;-70
2022/03/04 06:43:59;;;;;;;;;68.50;49.50;;;;;10.63;73.78;100845.84;5077026;27;45820;-67
2022/03/04 06:46:25;;;;;;;;;64.50;49.25;;;;;10.62;73.39;100838.88;5077655;27;45448;-70
2022/03/04 06:48:50;;;;;;;;;62.50;49.00;;;;;10.70;73.02;100854.41;5077476;27;45413;-67
2022/03/04 06:51:16;;;;;;;;;63.00;48.75;;;;;10.71;72.61;100851.69;5093293;27;45615;-68
2022/03/04 06:53:41;;;;;;;;;58.00;45.00;;;;;10.71;72.90;100859.59;5077072;27;45494;-69
2022/03/04 06:56:07;;;;;;;;;60.50;46.25;;;;;10.75;72.00;100861.19;5075865;27;45619;-69
2022/03/04 06:58:32;;;;;;;;;58.75;46.00;;;;;10.77;71.96;100864.63;5077296;27;45313;-69
2022/03/04 07:00:58;;;;;;;;;59.50;44.75;;;;;10.82;72.59;100867.09;5080521;27;45551;-70
2022/03/04 07:03:23;;;;;;;;;58.50;46.75;;;;;10.82;71.40;100867.09;5077076;28;47283;-69
2022/03/04 07:05:49;;;;;;;;;65.00;48.75;;;;;10.78;72.24;100868.13;5076257;27;45636;-70
2022/03/04 07:08:15;;;;;;;;;62.25;48.25;;;;;10.78;72.28;100878.66;5093106;27;45485;-68
2022/03/04 07:10:45;;;;;;;;;67.75;51.75;;;;;10.81;72.14;100882.00;5078629;27;45252;-70
2022/03/04 07:13:11;;;;;;;;;66.75;49.75;;;;;10.85;71.73;100876.63;5077583;27;46085;-69
2022/03/04 07:15:37;;;;;;;;;61.25;48.50;;;;;10.87;72.07;100867.78;5077551;27;45408;-69
2022/03/04 07:18:03;;;;;;;;;62.25;47.50;;;;;10.94;71.10;100882.44;5076208;27;45393;-70
2022/03/04 07:20:29;;;;;;;;;64.00;47.50;;;;;10.99;71.50;100878.78;5078246;27;45432;-65
2022/03/04 07:22:54;;;;;;;;;62.25;49.00;;;;;11.03;71.73;100880.38;5077497;27;46225;-70
2022/03/04 07:25:20;;;;;;;;;60.25;47.50;;;;;11.07;70.80;100879.34;5077071;27;45238;-65
2022/03/04 07:27:45;;;;;;;;;64.00;49.00;;;;;11.14;70.87;100887.88;5077152;27;45781;-72
2022/03/04 07:30:14;;;;;;;;;58.00;46.75;;;;;11.17;70.40;100885.97;5077021;27;45268;-71
2022/03/04 07:32:41;;;;;;;;;62.25;48.25;;;;;11.21;70.24;100892.84;5076508;27;45474;-68
2022/03/04 07:35:07;;;;;;;;;57.75;47.50;;;;;11.25;69.97;100883.91;5076530;27;45263;-68
2022/03/04 07:37:37;;;;;;;;;56.75;44.00;;;;;11.33;69.74;100899.44;5076711;27;45285;-68
2022/03/04 07:40:04;;;;;;;;;57.50;46.00;;;;;11.40;69.28;100894.78;5076948;27;45324;-69
2022/03/04 07:42:30;;;;;;;;;58.50;47.00;;;;;11.40;69.79;100886.88;5077299;27;45360;-69
2022/03/04 07:44:55;;;;;;;;;61.00;48.25;;;;;11.44;68.76;100893.72;5076503;27;45310;-69
2022/03/04 07:47:21;;;;;;;;;63.50;49.00;;;;;11.46;69.13;100897.16;5075207;28;45542;-69
2022/03/04 07:49:46;;;;;;;;;58.50;47.25;;;;;11.55;68.80;100904.72;5076685;27;45324;-69
2022/03/04 07:52:12;;;;;;;;;63.50;48.75;;;;;11.62;68.79;100901.84;5076291;27;45448;-71
2022/03/04 07:54:37;;;;;;;;;64.50;48.00;;;;;11.69;68.60;100900.69;5077190;27;45289;-73
2022/03/04 07:57:03;;;;;;;;;63.75;48.75;;;;;11.69;67.92;100904.19;5075638;28;45565;-69
2022/03/04 07:59:29;;;;;;;;;60.50;47.50;;;;;11.66;68.60;100901.66;5077108;27;45184;-70
2022/03/04 08:01:54;;;;;;;;;59.00;46.00;;;;;11.69;68.76;100900.69;5076590;27;45276;-67
2022/03/04 08:04:19;;;;;;;;;61.25;47.00;;;;;11.68;68.28;100905.09;5076977;27;45288;-70
2022/03/04 08:06:45;;;;;;;;;62.25;47.75;;;;;11.74;68.42;100911.03;5076503;27;45526;-70
2022/03/04 08:09:10;;;;;;;;;59.50;47.75;;;;;11.80;68.32;100905.53;5076836;27;45576;-67
2022/03/04 08:11:36;;;;;;;;;58.75;47.00;;;;;11.90;67.97;100919.19;5075672;27;45611;-67
2022/03/04 08:14:01;;;;;;;;;60.25;46.75;;;;;11.95;67.84;100906.69;5076577;27;45320;-69
2022/03/04 08:16:29;;;;;;;;;57.25;45.75;;;;;11.93;66.85;100913.81;5076558;27;45227;-72
2022/03/04 08:18:55;;;;;;;;;62.00;46.75;;;;;11.94;67.16;100926.06;5075935;28;45603;-68
2022/03/04 08:21:21;;;;;;;;;60.50;48.25;;;;;11.97;67.09;100926.78;5076530;27;45398;-69
2022/03/04 08:23:47;;;;;;;;;62.50;48.25;;;;;12.01;67.40;100926.69;5074915;27;46119;-65
2022/03/04 08:26:12;;;;;;;;;64.00;48.50;;;;;12.07;67.40;100923.81;5076150;27;45492;-70
2022/03/04 08:28:38;;;;;;;;;61.50;48.00;;;;;12.17;67.71;100924.28;5076484;27;45564;-70
2022/03/04 08:31:10;;;;;;;;;66.50;50.00;;;;;12.28;66.87;100924.72;5076437;27;45309;-68
2022/03/04 08:33:36;;;;;;;;;65.00;51.00;;;;;12.33;67.63;100924.53;5076168;27;45427;-70
2022/03/04 08:36:04;;;;;;;;;66.50;50.50;;;;;12.44;66.79;100934.59;5092138;27;45440;-67
2022/03/04 08:38:32;;;;;;;;;63.75;49.00;;;;;12.50;66.53;100929.06;5076234;27;45246;-69
2022/03/04 08:40:57;;;;;;;;;62.25;47.75;;;;;12.59;66.09;100941.03;5076043;27;46280;-70
2022/03/04 08:43:23;;;;;;;;;60.50;48.75;;;;;12.67;66.36;100926.56;5076026;27;45337;-69
2022/03/04 08:45:48;;;;;;;;;63.50;48.75;;;;;12.77;65.99;100936.75;5074642;28;45251;-70
2022/03/04 08:48:14;;;;;;;;;61.25;47.00;;;;;12.81;65.70;100938.31;5076112;27;45600;-69
2022/03/04 08:50:39;;;;;;;;;60.25;47.75;;;;;12.83;64.60;100941.75;5075559;27;45336;-70
2022/03/04 08:53:05;;;;;;;;;61.25;48.50;;;;;12.74;64.51;100935.06;5076159;27;45303;-69
2022/03/04 08:55:30;;;;;;;;;65.25;50.75;;;;;12.71;64.75;100941.34;5076266;27;45411;-69
2022/03/04 08:57:57;;;;;;;;;62.25;49.25;;;;;12.74;64.66;100944.78;5075621;27;45459;-70
2022/03/04 09:00:24;;;;;;;;;65.00;48.50;;;;;12.76;65.07;100946.44;5075726;27;46407;-68
2022/03/04 09:02:49;;;;;;;;;64.50;49.00;;;;;12.79;64.96;100948.09;5075617;27;45244;-65
2022/03/04 09:05:15;;;;;;;;;64.00;49.00;;;;;12.78;64.35;100941.09;5075681;27;45379;-66
2022/03/04 09:07:40;;;;;;;;;68.75;52.50;;;;;12.87;64.92;100948.63;5074375;27;45575;-69
2022/03/04 09:10:07;;;;;;;;;63.00;49.25;;;;;12.99;64.83;100947.19;5074140;27;45994;-67
2022/03/04 09:12:33;;;;;;;;;67.50;52.50;;;;;13.09;64.35;100945.00;5074601;27;45251;-67
2022/03/04 09:14:58;;;;;;;;;63.00;49.50;;;;;13.19;64.05;100956.00;5074385;27;45249;-68
2022/03/04 09:17:24;;;;;;;;;62.00;49.50;;;;;13.27;63.92;100946.81;5075665;27;45317;-71
2022/03/04 09:19:49;;;;;;;;;69.00;51.50;;;;;13.37;63.62;100949.03;5075368;28;45918;-65
2022/03/04 09:22:15;;;;;;;;;64.25;49.25;;;;;13.28;62.93;100951.16;5091078;27;45412;-72
2022/03/04 09:24:40;;;;;;;;;65.25;50.75;;;;;13.23;62.81;100953.16;5075143;27;45278;-69
2022/03/04 09:27:06;;;;;;;;;60.75;46.50;;;;;13.19;62.75;100943.66;5075989;27;45470;-66
2022/03/04 09:29:32;;;;;;;;;60.75;48.00;;;;;13.18;63.26;100946.38;5073775;27;45825;-66
2022/03/04 09:31:58;;;;;;;;;63.75;49.75;;;;;13.20;62.86;100947.16;5075267;27;45369;-71
2022/03/04 09:34:23;;;;;;;;;66.00;50.00;;;;;13.23;63.38;100945.25;5075364;27;45457;-68
2022/03/04 09:36:49;;;;;;;;;65.75;49.75;;;;;13.34;62.79;100943.88;5075402;27;45570;-72
2022/03/04 09:39:14;;;;;;;;;65.00;48.00;;;;;13.44;62.63;100946.09;5075063;27;45292;-67
2022/03/04 09:41:43;;;;;;;;;66.75;51.75;;;;;13.44;62.39;100945.22;5090655;27;45282;-70
2022/03/04 09:44:09;;;;;;;;;67.50;50.75;;;;;13.45;62.21;100949.56;5075010;27;45196;-70
2022/03/04 09:46:34;;;;;;;;;67.25;50.75;;;;;13.50;62.29;100946.72;5074347;28;45554;-71
2022/03/04 09:49:00;;;;;;;;;65.75;51.00;;;;;13.51;61.80;100951.91;5074896;27;46879;-70
2022/03/04 09:51:27;;;;;;;;;69.00;53.50;;;;;13.58;62.09;100955.16;5075144;27;45677;-69
2022/03/04 09:53:53;;;;;;;;;67.75;53.00;;;;;13.63;61.88;100952.28;5075063;27;45344;-66
2022/03/04 09:56:20;;;;;;;;;71.50;52.50;;;;;13.68;61.63;100952.91;5073751;28;45859;-69
2022/03/04 09:58:46;;;;;;;;;63.75;50.75;;;;;13.67;61.51;100952.06;5074528;27;46931;-65
2022/03/04 10:01:13;;;;;;;;;69.75;52.50;;;;;13.68;61.73;100960.84;5073313;27;45341;-69
2022/03/04 10:03:46;;;;;;;;;68.25;52.50;;;;;13.73;61.94;100954.41;5075531;27;45302;-69
2022/03/04 10:06:13;;;;;;;;;67.75;51.50;;;;;13.86;61.28;100949.41;5075442;27;45377;-66
2022/03/04 10:08:41;;;;;;;;;69.25;52.75;;;;;13.91;60.79;100951.81;5074911;27;45407;-70
2022/03/04 10:11:07;;;;;;;;;68.00;51.75;;;;;13.88;61.07;100950.19;5094182;27;45306;-70
2022/03/04 10:13:53;;;;;;;;;66.00;51.75;;;;;13.91;61.18;100950.97;5093716;27;45321;-70
2022/03/04 10:16:26;;;;;;;;;67.00;52.25;;;;;13.97;61.19;100953.31;5078121;27;45320;-70
2022/03/04 10:19:07;;;;;;;;;69.50;52.50;;;;;14.01;60.76;100950.44;5093558;27;46139;-68
2022/03/04 10:21:50;;;;;;;;;71.25;55.75;;;;;14.05;60.68;100958.22;5077866;27;45333;-66
2022/03/04 10:24:19;;;;;;;;;67.75;51.50;;;;;14.07;60.52;100951.06;5078311;27;45254;-67
2022/03/04 10:26:44;;;;;;;;;69.75;53.50;;;;;14.07;60.57;100946.66;5077150;27;45579;-71
2022/03/04 10:29:21;;;;;;;;;67.00;53.25;;;;;14.05;59.94;100948.53;5078031;27;45462;-68
2022/03/04 10:32:05;;;;;;;;;69.75;52.50;;;;;13.98;59.87;100955.88;5077489;27;45449;-72
2022/03/04 10:34:47;;;;;;;;;70.75;53.25;;;;;13.96;60.09;100957.75;5077512;27;45319;-71
2022/03/04 10:37:15;;;;;;;;;61.50;50.25;;;;;13.99;60.65;100962.88;5093277;27;45524;-69
2022/03/04 10:39:58;;;;;;;;;68.50;53.25;;;;;14.02;60.05;100965.38;5077361;27;46838;-70
2022/03/04 10:42:53;;;;;;;;;71.25;55.25;;;;;14.09;60.21;100960.66;5077235;27;45365;-67
2022/03/04 10:45:27;;;;;;;;;69.00;53.75;;;;;14.08;59.67;100968.66;5088117;27;45425;-68
2022/03/04 10:48:08;;;;;;;;;72.00;54.50;;;;;14.06;60.17;100963.47;5078115;27;45268;-72
2022/03/04 10:50:35;;;;;;;;;70.33;58.00;;;;;14.09;59.17;100971.25;5075968;28;46352;-70
2022/03/04 10:53:08;;;;;;;;;75.25;58.75;;;;;14.07;59.54;100973.09;5075857;28;45456;-71
2022/03/04 10:55:48;;;;;;;;;71.25;54.75;;;;;14.08;59.63;100968.66;5077265;27;45606;-68
2022/03/04 10:58:18;;;;;;;;;72.75;55.25;;;;;14.10;59.48;100966.78;5076954;27;45558;-69
2022/03/04 11:00:48;;;;;;;;;70.50;53.00;;;;;14.15;59.53;100970.06;5077020;27;45414;-72
2022/03/04 11:03:19;;;;;;;;;73.00;57.00;;;;;14.22;59.42;100962.69;5076754;27;45422;-70
2022/03/04 11:05:45;;;;;;;;;75.00;56.75;;;;;14.27;59.44;100965.97;5078262;27;45282;-65
2022/03/04 11:08:10;;;;;;;;;75.00;57.50;;;;;14.24;58.72;100968.78;5079081;27;45297;-70